Detalii statie FERMA VISANI-IMB [000011A7]

Toti senzorii

Date Temperatura solului [C]Precipitatii [mm]Voltaj baterie [mV]Leaf Wetness [Min]HC Air temperature [C]HC Relative humidity [%]Punctul de roua [C]
medieminmaxsumaultimatimpmedieminmaxmediemediemin
2018-10-13 16:00:00 25 24.6 25.3 0 6914 0 22.45 22.19 22.7 0 0 0
2018-10-13 17:00:00 23.7 22.9 24.5 0 6914 0 21.82 21.32 22.33 0 0 0
2018-10-13 18:00:00 21.8 20.8 22.8 0 6678 0 19.94 18.39 21.03 0 0 0
2018-10-13 19:00:00 19.7 18.8 20.7 0 6620 0 16.07 14.23 18.04 0 0 0
2018-10-13 20:00:00 17.8 17.1 18.6 0 6600 0 12.72 11.24 14.11 0 0 0
2018-10-13 21:00:00 16.4 15.8 17.1 0 6590 0 9.55 8.78 10.75 0 0 0
2018-10-13 22:00:00 15.2 14.7 15.7 0 6590 0 9.35 8.76 9.79 0 0 0
2018-10-13 23:00:00 14.2 13.9 14.6 0 6572 0 8.98 8.66 9.39 0 0 0
2018-10-14 00:00:00 13.6 13.3 14 0 6572 0 7.62 6.57 8.44 0 0 0
2018-10-14 01:00:00 12.9 12.7 13.2 0 6572 0 6.86 6.21 7.71 0 0 0
2018-10-14 02:00:00 12.5 12.4 12.7 0 6562 0 7.25 6.41 7.92 0 0 0
2018-10-14 03:00:00 12 11.9 12.4 0 6552 0 6.17 5.8 6.57 0 0 0
2018-10-14 04:00:00 11.7 11.6 11.8 0 6552 0 6.64 6.24 6.87 0 0 0
2018-10-14 05:00:00 11.4 11.2 11.6 0 6542 0 6.34 6.2 6.58 0 0 0
2018-10-14 06:00:00 11.1 10.9 11.3 0 6532 0 5.99 5.58 6.37 0 0 0
2018-10-14 07:00:00 10.7 10.6 10.9 0 6522 0 5.49 5.06 5.67 0 0 0
2018-10-14 08:00:00 10.4 10.4 10.6 0 6522 0 5.13 4.83 6.03 0 0 0
2018-10-14 09:00:00 10.6 10.4 10.9 0 6816 0 8.19 6.35 10.56 0 0 0
2018-10-14 10:00:00 12.4 11.1 14.1 0 6922 0 12.55 10.92 14.12 0 0 0
2018-10-14 11:00:00 16.2 14.5 18 0 6922 0 16.6 14.6 18.13 0 0 0
2018-10-14 12:00:00 19.8 18.4 21.5 0 6922 0 19.67 18.28 20.71 0 0 0
2018-10-14 13:00:00 22.8 21.7 24 0 6914 0 22.06 20.77 22.92 0 0 0
2018-10-14 14:00:00 24.7 24.1 25.3 0 6914 0 23.21 22.32 23.85 0 0 0
2018-10-14 15:00:00 25.5 25.4 25.7 0 6914 0 23.8 23.22 24.29 0 0 0
2018-10-14 16:00:00 25.2 24.9 25.5 0 6914 0 23.56 22.94 24.02 0 0 0
2018-10-14 17:00:00 24 23.2 24.7 0 6914 0 22.48 22 23.1 0 0 0
2018-10-14 18:00:00 22.1 21.2 23.1 0 6668 0 20.61 18.96 21.7 0 0 0
2018-10-14 19:00:00 20 19 21 0 6610 0 16.78 15.59 18.66 0 0 0
2018-10-14 20:00:00 18.1 17.4 18.8 0 6600 0 14.35 13.5 15.68 0 0 0
2018-10-14 21:00:00 16.8 16.3 17.3 0 6590 0 12.07 11.61 13.07 0 0 0
2018-10-14 22:00:00 15.7 15.3 16.2 0 6590 0 11.12 9.91 11.87 0 0 0
2018-10-14 23:00:00 14.8 14.4 15.3 0 6572 0 9.22 8.78 9.87 0 0 0
2018-10-15 00:00:00 14 13.7 14.3 0 6572 0 8.44 7.88 9.35 0 0 0
2018-10-15 01:00:00 13.5 13.4 13.7 0 6562 0 8.84 8.47 9.32 0 0 0
2018-10-15 02:00:00 13 12.6 13.3 0 6562 0 7.49 6.79 8.83 0 0 0
2018-10-15 03:00:00 12.4 12.3 12.7 0 6552 0 6.78 6.19 7.41 0 0 0
2018-10-15 04:00:00 11.9 11.7 12.2 0 6532 0 5.82 5.38 6.19 0 0 0
2018-10-15 05:00:00 11.7 11.6 11.8 0 6532 0 7.35 5.88 7.84 0 0 0
2018-10-15 06:00:00 11.4 11.3 11.6 0 6522 0 6.11 4.91 7.07 0 0 0
2018-10-15 07:00:00 11 10.8 11.2 0 6512 0 4.53 4.33 4.84 0 0 0
2018-10-15 08:00:00 10.6 10.5 10.8 0 6522 0 5.31 4.4 6.72 0 0 0
2018-10-15 09:00:00 10.8 10.6 11.3 0 6786 0 8.2 6.86 10.63 0 0 0
2018-10-15 10:00:00 12.7 11.3 14.6 0 6922 0 13.35 11.18 15.28 0 0 0
2018-10-15 11:00:00 16.9 15 18.7 0 6922 0 17.5 15.5 19.37 0 0 0
2018-10-15 12:00:00 20.6 19 22.2 0 6914 0 21.17 19.49 22.67 0 0 0
2018-10-15 13:00:00 23.6 22.5 24.7 0 6914 0 23.14 22.41 24.06 0 0 0
2018-10-15 14:00:00 25.5 24.8 26.1 0 6914 0 25.12 24.15 26.2 0 0 0
2018-10-15 15:00:00 26.2 26.2 26.4 0 6914 0 25.85 25.23 26.27 0 0 0